sensor_id;sensor_type;location;lat;lon;timestamp;pressure;altitude;pressure_sealevel;temperature
76381;BMP280;65202;52.520;10.528;2023-08-08T00:01:39;100553.25;;;14.20
76381;BMP280;65202;52.520;10.528;2023-08-08T00:04:10;100554.84;;;14.17
76381;BMP280;65202;52.520;10.528;2023-08-08T00:06:37;100549.53;;;14.08
76381;BMP280;65202;52.520;10.528;2023-08-08T00:09:05;100548.81;;;14.12
76381;BMP280;65202;52.520;10.528;2023-08-08T00:11:32;100554.09;;;14.21
76381;BMP280;65202;52.520;10.528;2023-08-08T00:14:00;100542.53;;;13.98
76381;BMP280;65202;52.520;10.528;2023-08-08T00:16:27;100543.31;;;14.26
76381;BMP280;65202;52.520;10.528;2023-08-08T00:18:54;100548.88;;;14.15
76381;BMP280;65202;52.520;10.528;2023-08-08T00:21:21;100543.84;;;14.15
76381;BMP280;65202;52.520;10.528;2023-08-08T00:23:49;100542.31;;;14.20
76381;BMP280;65202;52.520;10.528;2023-08-08T00:26:16;100549.63;;;14.11
76381;BMP280;65202;52.520;10.528;2023-08-08T00:28:44;100548.53;;;14.32
76381;BMP280;65202;52.520;10.528;2023-08-08T00:31:11;100540.31;;;14.39
76381;BMP280;65202;52.520;10.528;2023-08-08T00:33:38;100542.31;;;14.20
76381;BMP280;65202;52.520;10.528;2023-08-08T00:36:06;100537.78;;;14.38
76381;BMP280;65202;52.520;10.528;2023-08-08T00:38:33;100536.84;;;14.34
76381;BMP280;65202;52.520;10.528;2023-08-08T00:41:00;100537.59;;;14.02
76381;BMP280;65202;52.520;10.528;2023-08-08T00:43:28;100533.34;;;14.29
76381;BMP280;65202;52.520;10.528;2023-08-08T00:45:55;100533.66;;;14.09
76381;BMP280;65202;52.520;10.528;2023-08-08T00:48:24;100532.69;;;14.05
76381;BMP280;65202;52.520;10.528;2023-08-08T00:50:52;100523.75;;;13.87
76381;BMP280;65202;52.520;10.528;2023-08-08T00:53:19;100527.25;;;13.92
76381;BMP280;65202;52.520;10.528;2023-08-08T00:55:50;100523.25;;;13.98
76381;BMP280;65202;52.520;10.528;2023-08-08T00:58:18;100524.44;;;13.80
76381;BMP280;65202;52.520;10.528;2023-08-08T01:00:46;100525.16;;;14.07
76381;BMP280;65202;52.520;10.528;2023-08-08T01:03:13;100520.44;;;13.88
76381;BMP280;65202;52.520;10.528;2023-08-08T01:05:48;100511.41;;;13.94
76381;BMP280;65202;52.520;10.528;2023-08-08T01:08:23;100515.47;;;13.91
76381;BMP280;65202;52.520;10.528;2023-08-08T01:10:57;100510.25;;;13.83
76381;BMP280;65202;52.520;10.528;2023-08-08T01:13:26;100498.59;;;13.87
76381;BMP280;65202;52.520;10.528;2023-08-08T01:15:57;100494.06;;;13.74
76381;BMP280;65202;52.520;10.528;2023-08-08T01:18:27;100499.09;;;13.74
76381;BMP280;65202;52.520;10.528;2023-08-08T01:20:55;100499.41;;;13.86
76381;BMP280;65202;52.520;10.528;2023-08-08T01:23:33;100497.72;;;13.56
76381;BMP280;65202;52.520;10.528;2023-08-08T01:26:08;100488.47;;;13.84
76381;BMP280;65202;52.520;10.528;2023-08-08T01:28:35;100488.94;;;13.71
76381;BMP280;65202;52.520;10.528;2023-08-08T01:31:03;100487.72;;;13.88
76381;BMP280;65202;52.520;10.528;2023-08-08T01:33:30;100498.91;;;13.68
76381;BMP280;65202;52.520;10.528;2023-08-08T01:36:06;100490.63;;;13.72
76381;BMP280;65202;52.520;10.528;2023-08-08T01:38:42;100489.84;;;13.73
76381;BMP280;65202;52.520;10.528;2023-08-08T01:41:12;100482.50;;;13.81
76381;BMP280;65202;52.520;10.528;2023-08-08T01:43:40;100464.72;;;13.75
76381;BMP280;65202;52.520;10.528;2023-08-08T01:46:08;100474.81;;;13.76
76381;BMP280;65202;52.520;10.528;2023-08-08T01:48:37;100473.38;;;13.55
76381;BMP280;65202;52.520;10.528;2023-08-08T01:51:05;100465.63;;;13.77
76381;BMP280;65202;52.520;10.528;2023-08-08T01:53:32;100470.09;;;13.57
76381;BMP280;65202;52.520;10.528;2023-08-08T01:56:00;100463.06;;;13.75
76381;BMP280;65202;52.520;10.528;2023-08-08T01:58:27;100469.56;;;13.69
76381;BMP280;65202;52.520;10.528;2023-08-08T02:00:54;100476.69;;;13.83
76381;BMP280;65202;52.520;10.528;2023-08-08T02:03:21;100459.59;;;13.72
76381;BMP280;65202;52.520;10.528;2023-08-08T02:05:49;100462.47;;;13.85
76381;BMP280;65202;52.520;10.528;2023-08-08T02:08:16;100454.84;;;13.82
76381;BMP280;65202;52.520;10.528;2023-08-08T02:10:45;100458.66;;;13.68
76381;BMP280;65202;52.520;10.528;2023-08-08T02:13:12;100447.13;;;13.76
76381;BMP280;65202;52.520;10.528;2023-08-08T02:15:39;100461.00;;;13.62
76381;BMP280;65202;52.520;10.528;2023-08-08T02:18:06;100456.16;;;13.99
76381;BMP280;65202;52.520;10.528;2023-08-08T02:20:35;100454.81;;;13.81
76381;BMP280;65202;52.520;10.528;2023-08-08T02:23:03;100447.56;;;13.60
76381;BMP280;65202;52.520;10.528;2023-08-08T02:25:30;100457.56;;;13.59
76381;BMP280;65202;52.520;10.528;2023-08-08T02:27:58;100453.47;;;13.62
76381;BMP280;65202;52.520;10.528;2023-08-08T02:30:25;100456.78;;;13.61
76381;BMP280;65202;52.520;10.528;2023-08-08T02:32:52;100452.88;;;13.71
76381;BMP280;65202;52.520;10.528;2023-08-08T02:35:19;100454.41;;;13.66
76381;BMP280;65202;52.520;10.528;2023-08-08T02:37:47;100451.84;;;13.64
76381;BMP280;65202;52.520;10.528;2023-08-08T02:40:14;100458.38;;;13.58
76381;BMP280;65202;52.520;10.528;2023-08-08T02:42:41;100457.69;;;13.63
76381;BMP280;65202;52.520;10.528;2023-08-08T02:45:09;100456.75;;;13.60
76381;BMP280;65202;52.520;10.528;2023-08-08T02:47:36;100460.56;;;13.75
76381;BMP280;65202;52.520;10.528;2023-08-08T02:50:03;100464.28;;;13.60
76381;BMP280;65202;52.520;10.528;2023-08-08T02:52:31;100467.81;;;13.66
76381;BMP280;65202;52.520;10.528;2023-08-08T02:54:58;100461.66;;;13.55
76381;BMP280;65202;52.520;10.528;2023-08-08T02:57:26;100454.69;;;13.76
76381;BMP280;65202;52.520;10.528;2023-08-08T02:59:53;100456.88;;;13.64
76381;BMP280;65202;52.520;10.528;2023-08-08T03:02:20;100458.63;;;13.67
76381;BMP280;65202;52.520;10.528;2023-08-08T03:04:47;100459.44;;;13.66
76381;BMP280;65202;52.520;10.528;2023-08-08T03:07:15;100452.47;;;13.86
76381;BMP280;65202;52.520;10.528;2023-08-08T03:09:42;100449.59;;;13.73
76381;BMP280;65202;52.520;10.528;2023-08-08T03:12:09;100453.47;;;13.62
76381;BMP280;65202;52.520;10.528;2023-08-08T03:14:36;100453.50;;;13.64
76381;BMP280;65202;52.520;10.528;2023-08-08T03:17:04;100440.72;;;13.56
76381;BMP280;65202;52.520;10.528;2023-08-08T03:19:32;100446.09;;;13.68
76381;BMP280;65202;52.520;10.528;2023-08-08T03:21:59;100435.19;;;13.68
76381;BMP280;65202;52.520;10.528;2023-08-08T03:24:27;100441.75;;;13.63
76381;BMP280;65202;52.520;10.528;2023-08-08T03:26:54;100443.66;;;13.71
76381;BMP280;65202;52.520;10.528;2023-08-08T03:29:21;100434.09;;;13.60
76381;BMP280;65202;52.520;10.528;2023-08-08T03:31:49;100430.81;;;13.62
76381;BMP280;65202;52.520;10.528;2023-08-08T03:34:16;100435.50;;;13.49
76381;BMP280;65202;52.520;10.528;2023-08-08T03:36:43;100421.78;;;13.69
76381;BMP280;65202;52.520;10.528;2023-08-08T03:39:11;100428.31;;;13.62
76381;BMP280;65202;52.520;10.528;2023-08-08T03:41:38;100422.19;;;13.53
76381;BMP280;65202;52.520;10.528;2023-08-08T03:44:05;100424.56;;;13.48
76381;BMP280;65202;52.520;10.528;2023-08-08T03:46:32;100429.81;;;13.56
76381;BMP280;65202;52.520;10.528;2023-08-08T03:49:01;100431.78;;;13.67
76381;BMP280;65202;52.520;10.528;2023-08-08T03:51:28;100426.78;;;13.67
76381;BMP280;65202;52.520;10.528;2023-08-08T03:53:56;100426.47;;;13.55
76381;BMP280;65202;52.520;10.528;2023-08-08T03:56:23;100422.72;;;13.72
76381;BMP280;65202;52.520;10.528;2023-08-08T03:58:50;100426.66;;;13.63
76381;BMP280;65202;52.520;10.528;2023-08-08T04:01:18;100425.81;;;13.64
76381;BMP280;65202;52.520;10.528;2023-08-08T04:03:45;100427.78;;;13.74
76381;BMP280;65202;52.520;10.528;2023-08-08T04:06:12;100421.28;;;13.80
76381;BMP280;65202;52.520;10.528;2023-08-08T04:08:39;100417.38;;;13.92
76381;BMP280;65202;52.520;10.528;2023-08-08T04:11:07;100406.31;;;13.86
76381;BMP280;65202;52.520;10.528;2023-08-08T04:13:34;100421.06;;;13.73
76381;BMP280;65202;52.520;10.528;2023-08-08T04:16:01;100418.75;;;13.80
76381;BMP280;65202;52.520;10.528;2023-08-08T04:18:29;100416.53;;;13.92
76381;BMP280;65202;52.520;10.528;2023-08-08T04:20:56;100411.50;;;13.92
76381;BMP280;65202;52.520;10.528;2023-08-08T04:23:23;100402.88;;;14.15
76381;BMP280;65202;52.520;10.528;2023-08-08T04:25:53;100399.56;;;13.85
76381;BMP280;65202;52.520;10.528;2023-08-08T04:28:20;100402.16;;;13.86
76381;BMP280;65202;52.520;10.528;2023-08-08T04:30:47;100387.16;;;13.91
76381;BMP280;65202;52.520;10.528;2023-08-08T04:33:15;100406.06;;;13.77
76381;BMP280;65202;52.520;10.528;2023-08-08T04:35:42;100397.91;;;13.85
76381;BMP280;65202;52.520;10.528;2023-08-08T04:38:09;100399.16;;;14.01
76381;BMP280;65202;52.520;10.528;2023-08-08T04:40:36;100402.41;;;13.97
76381;BMP280;65202;52.520;10.528;2023-08-08T04:43:05;100393.09;;;13.94
76381;BMP280;65202;52.520;10.528;2023-08-08T04:45:32;100396.78;;;14.07
76381;BMP280;65202;52.520;10.528;2023-08-08T04:48:00;100400.25;;;14.09
76381;BMP280;65202;52.520;10.528;2023-08-08T04:50:27;100397.59;;;14.06
76381;BMP280;65202;52.520;10.528;2023-08-08T04:52:55;100390.25;;;14.13
76381;BMP280;65202;52.520;10.528;2023-08-08T04:55:22;100393.78;;;14.20
76381;BMP280;65202;52.520;10.528;2023-08-08T04:57:49;100395.53;;;14.24
76381;BMP280;65202;52.520;10.528;2023-08-08T05:00:17;100384.00;;;14.32
76381;BMP280;65202;52.520;10.528;2023-08-08T05:02:44;100388.28;;;14.36
76381;BMP280;65202;52.520;10.528;2023-08-08T05:05:12;100398.44;;;14.40
76381;BMP280;65202;52.520;10.528;2023-08-08T05:07:39;100391.06;;;14.48
76381;BMP280;65202;52.520;10.528;2023-08-08T05:10:06;100392.69;;;14.44
76381;BMP280;65202;52.520;10.528;2023-08-08T05:12:33;100383.66;;;14.53
76381;BMP280;65202;52.520;10.528;2023-08-08T05:15:01;100389.31;;;14.44
76381;BMP280;65202;52.520;10.528;2023-08-08T05:17:30;100387.13;;;14.57
76381;BMP280;65202;52.520;10.528;2023-08-08T05:19:59;100397.06;;;14.52
76381;BMP280;65202;52.520;10.528;2023-08-08T05:22:26;100385.38;;;14.54
76381;BMP280;65202;52.520;10.528;2023-08-08T05:24:53;100394.81;;;14.63
76381;BMP280;65202;52.520;10.528;2023-08-08T05:27:20;100396.28;;;14.55
76381;BMP280;65202;52.520;10.528;2023-08-08T05:29:48;100392.03;;;14.52
76381;BMP280;65202;52.520;10.528;2023-08-08T05:32:15;100387.09;;;14.55
76381;BMP280;65202;52.520;10.528;2023-08-08T05:34:42;100389.88;;;14.69
76381;BMP280;65202;52.520;10.528;2023-08-08T05:37:09;100383.88;;;14.62
76381;BMP280;65202;52.520;10.528;2023-08-08T05:39:44;100387.53;;;14.76
76381;BMP280;65202;52.520;10.528;2023-08-08T05:42:11;100387.47;;;14.73
76381;BMP280;65202;52.520;10.528;2023-08-08T05:44:39;100386.84;;;14.82
76381;BMP280;65202;52.520;10.528;2023-08-08T05:47:08;100394.28;;;14.77
76381;BMP280;65202;52.520;10.528;2023-08-08T05:49:36;100392.72;;;14.82
76381;BMP280;65202;52.520;10.528;2023-08-08T05:52:05;100399.19;;;14.71
76381;BMP280;65202;52.520;10.528;2023-08-08T05:54:33;100392.53;;;14.75
76381;BMP280;65202;52.520;10.528;2023-08-08T05:57:02;100393.53;;;14.81
76381;BMP280;65202;52.520;10.528;2023-08-08T05:59:29;100392.53;;;14.75
76381;BMP280;65202;52.520;10.528;2023-08-08T06:01:57;100398.69;;;14.86
76381;BMP280;65202;52.520;10.528;2023-08-08T06:04:26;100398.53;;;14.80
76381;BMP280;65202;52.520;10.528;2023-08-08T06:06:54;100398.09;;;14.97
76381;BMP280;65202;52.520;10.528;2023-08-08T06:09:21;100393.06;;;14.99
76381;BMP280;65202;52.520;10.528;2023-08-08T06:11:49;100394.25;;;15.14
76381;BMP280;65202;52.520;10.528;2023-08-08T06:14:16;100393.41;;;15.15
76381;BMP280;65202;52.520;10.528;2023-08-08T06:16:44;100388.66;;;15.27
76381;BMP280;65202;52.520;10.528;2023-08-08T06:19:13;100397.50;;;15.50
76381;BMP280;65202;52.520;10.528;2023-08-08T06:21:42;100398.47;;;15.56
76381;BMP280;65202;52.520;10.528;2023-08-08T06:24:09;100399.25;;;15.54
76381;BMP280;65202;52.520;10.528;2023-08-08T06:26:37;100391.13;;;15.68
76381;BMP280;65202;52.520;10.528;2023-08-08T06:29:04;100389.34;;;15.63
76381;BMP280;65202;52.520;10.528;2023-08-08T06:31:31;100386.28;;;15.78
76381;BMP280;65202;52.520;10.528;2023-08-08T06:33:58;100394.88;;;15.88
76381;BMP280;65202;52.520;10.528;2023-08-08T06:36:26;100392.09;;;15.75
76381;BMP280;65202;52.520;10.528;2023-08-08T06:38:53;100393.81;;;15.77
76381;BMP280;65202;52.520;10.528;2023-08-08T06:41:21;100393.94;;;15.83
76381;BMP280;65202;52.520;10.528;2023-08-08T06:43:48;100388.28;;;15.97
76381;BMP280;65202;52.520;10.528;2023-08-08T06:46:15;100395.97;;;16.03
76381;BMP280;65202;52.520;10.528;2023-08-08T06:48:43;100398.34;;;15.96
76381;BMP280;65202;52.520;10.528;2023-08-08T06:51:11;100399.47;;;15.64
76381;BMP280;65202;52.520;10.528;2023-08-08T06:53:39;100401.22;;;15.67
76381;BMP280;65202;52.520;10.528;2023-08-08T06:56:06;100401.16;;;15.65
76381;BMP280;65202;52.520;10.528;2023-08-08T06:58:33;100392.09;;;15.76
76381;BMP280;65202;52.520;10.528;2023-08-08T07:01:00;100402.00;;;15.64
76381;BMP280;65202;52.520;10.528;2023-08-08T07:03:28;100391.16;;;15.70
76381;BMP280;65202;52.520;10.528;2023-08-08T07:05:55;100390.47;;;15.78
76381;BMP280;65202;52.520;10.528;2023-08-08T07:08:22;100386.38;;;15.83
76381;BMP280;65202;52.520;10.528;2023-08-08T07:10:50;100385.69;;;15.93
76381;BMP280;65202;52.520;10.528;2023-08-08T07:13:20;100385.63;;;15.90
76381;BMP280;65202;52.520;10.528;2023-08-08T07:15:48;100388.16;;;15.91
76381;BMP280;65202;52.520;10.528;2023-08-08T07:18:16;100378.38;;;15.61
76381;BMP280;65202;52.520;10.528;2023-08-08T07:20:43;100379.81;;;15.47
76381;BMP280;65202;52.520;10.528;2023-08-08T07:23:10;100374.91;;;15.54
76381;BMP280;65202;52.520;10.528;2023-08-08T07:25:38;100385.75;;;15.50
76381;BMP280;65202;52.520;10.528;2023-08-08T07:28:05;100390.88;;;15.55
76381;BMP280;65202;52.520;10.528;2023-08-08T07:30:32;100382.69;;;15.68
76381;BMP280;65202;52.520;10.528;2023-08-08T07:33:00;100384.16;;;15.55
76381;BMP280;65202;52.520;10.528;2023-08-08T07:35:27;100372.59;;;15.68
76381;BMP280;65202;52.520;10.528;2023-08-08T07:37:54;100381.78;;;16.11
76381;BMP280;65202;52.520;10.528;2023-08-08T07:40:21;100365.91;;;16.17
76381;BMP280;65202;52.520;10.528;2023-08-08T07:42:49;100358.16;;;16.61
76381;BMP280;65202;52.520;10.528;2023-08-08T07:45:17;100357.88;;;17.76
76381;BMP280;65202;52.520;10.528;2023-08-08T07:47:44;100334.84;;;18.50
76381;BMP280;65202;52.520;10.528;2023-08-08T07:50:12;100326.88;;;19.95
76381;BMP280;65202;52.520;10.528;2023-08-08T07:52:40;100333.31;;;18.77
76381;BMP280;65202;52.520;10.528;2023-08-08T07:55:08;100332.50;;;18.92
76381;BMP280;65202;52.520;10.528;2023-08-08T07:57:35;100322.91;;;18.35
76381;BMP280;65202;52.520;10.528;2023-08-08T08:00:03;100328.84;;;18.37
76381;BMP280;65202;52.520;10.528;2023-08-08T08:02:36;100328.44;;;19.26
76381;BMP280;65202;52.520;10.528;2023-08-08T08:05:03;100322.63;;;19.72
76381;BMP280;65202;52.520;10.528;2023-08-08T08:07:35;100332.75;;;19.79
76381;BMP280;65202;52.520;10.528;2023-08-08T08:10:05;100326.84;;;19.86
76381;BMP280;65202;52.520;10.528;2023-08-08T08:12:36;100319.13;;;20.85
76381;BMP280;65202;52.520;10.528;2023-08-08T08:15:03;100313.16;;;20.71
76381;BMP280;65202;52.520;10.528;2023-08-08T08:17:32;100321.78;;;19.83
76381;BMP280;65202;52.520;10.528;2023-08-08T08:19:59;100323.16;;;18.80
76381;BMP280;65202;52.520;10.528;2023-08-08T08:22:27;100325.63;;;18.62
76381;BMP280;65202;52.520;10.528;2023-08-08T08:24:54;100320.53;;;18.59
76381;BMP280;65202;52.520;10.528;2023-08-08T08:27:22;100316.22;;;18.48
76381;BMP280;65202;52.520;10.528;2023-08-08T08:29:49;100318.53;;;18.17
76381;BMP280;65202;52.520;10.528;2023-08-08T08:32:16;100302.66;;;18.41
76381;BMP280;65202;52.520;10.528;2023-08-08T08:34:43;100307.69;;;18.33
76381;BMP280;65202;52.520;10.528;2023-08-08T08:37:11;100304.22;;;18.19
76381;BMP280;65202;52.520;10.528;2023-08-08T08:39:38;100321.63;;;17.83
76381;BMP280;65202;52.520;10.528;2023-08-08T08:42:06;100323.75;;;17.37
76381;BMP280;65202;52.520;10.528;2023-08-08T08:44:37;100321.13;;;17.29
76381;BMP280;65202;52.520;10.528;2023-08-08T08:47:07;100322.41;;;16.98
76381;BMP280;65202;52.520;10.528;2023-08-08T08:49:38;100320.69;;;16.94
76381;BMP280;65202;52.520;10.528;2023-08-08T08:52:06;100329.25;;;17.04
76381;BMP280;65202;52.520;10.528;2023-08-08T08:54:33;100325.03;;;17.05
76381;BMP280;65202;52.520;10.528;2023-08-08T08:57:01;100329.09;;;16.93
76381;BMP280;65202;52.520;10.528;2023-08-08T08:59:28;100332.31;;;16.83
76381;BMP280;65202;52.520;10.528;2023-08-08T09:01:56;100326.38;;;16.78
76381;BMP280;65202;52.520;10.528;2023-08-08T09:04:24;100322.28;;;16.86
76381;BMP280;65202;52.520;10.528;2023-08-08T09:06:55;100325.94;;;17.11
76381;BMP280;65202;52.520;10.528;2023-08-08T09:09:22;100326.66;;;17.02
76381;BMP280;65202;52.520;10.528;2023-08-08T09:11:51;100327.75;;;17.21
76381;BMP280;65202;52.520;10.528;2023-08-08T09:14:24;100322.63;;;17.98
76381;BMP280;65202;52.520;10.528;2023-08-08T09:16:53;100311.09;;;18.36
76381;BMP280;65202;52.520;10.528;2023-08-08T09:19:21;100292.97;;;20.14
76381;BMP280;65202;52.520;10.528;2023-08-08T09:21:49;100302.31;;;19.91
76381;BMP280;65202;52.520;10.528;2023-08-08T09:24:18;100307.31;;;19.26
76381;BMP280;65202;52.520;10.528;2023-08-08T09:26:46;100298.72;;;19.03
76381;BMP280;65202;52.520;10.528;2023-08-08T09:29:14;100294.50;;;18.95
76381;BMP280;65202;52.520;10.528;2023-08-08T09:31:42;100297.63;;;18.44
76381;BMP280;65202;52.520;10.528;2023-08-08T09:34:09;100299.44;;;18.68
76381;BMP280;65202;52.520;10.528;2023-08-08T09:36:37;100300.34;;;18.77
76381;BMP280;65202;52.520;10.528;2023-08-08T09:39:04;100298.88;;;19.80
76381;BMP280;65202;52.520;10.528;2023-08-08T09:41:32;100290.44;;;20.05
76381;BMP280;65202;52.520;10.528;2023-08-08T09:43:59;100301.41;;;19.37
76381;BMP280;65202;52.520;10.528;2023-08-08T09:46:29;100292.09;;;19.63
76381;BMP280;65202;52.520;10.528;2023-08-08T09:48:58;100293.78;;;19.48
76381;BMP280;65202;52.520;10.528;2023-08-08T09:51:26;100283.66;;;19.62
76381;BMP280;65202;52.520;10.528;2023-08-08T09:53:55;100295.50;;;19.62
76381;BMP280;65202;52.520;10.528;2023-08-08T09:56:24;100291.25;;;19.37
76381;BMP280;65202;52.520;10.528;2023-08-08T09:58:52;100293.84;;;19.67
76381;BMP280;65202;52.520;10.528;2023-08-08T10:01:20;100298.06;;;20.17
76381;BMP280;65202;52.520;10.528;2023-08-08T10:03:51;100291.25;;;19.36
76381;BMP280;65202;52.520;10.528;2023-08-08T10:06:19;100298.00;;;19.35
76381;BMP280;65202;52.520;10.528;2023-08-08T10:08:46;100285.38;;;20.17
76381;BMP280;65202;52.520;10.528;2023-08-08T10:11:14;100280.94;;;20.85
76381;BMP280;65202;52.520;10.528;2023-08-08T10:13:49;100273.28;;;20.88
76381;BMP280;65202;52.520;10.528;2023-08-08T10:16:17;100271.28;;;21.40
76381;BMP280;65202;52.520;10.528;2023-08-08T10:18:46;100250.59;;;21.82
76381;BMP280;65202;52.520;10.528;2023-08-08T10:21:35;100265.47;;;21.22
76381;BMP280;65202;52.520;10.528;2023-08-08T10:24:04;100284.53;;;19.93
76381;BMP280;65202;52.520;10.528;2023-08-08T10:26:34;100316.56;;;19.18
76381;BMP280;65202;52.520;10.528;2023-08-08T10:29:18;100345.97;;;17.66
76381;BMP280;65202;52.520;10.528;2023-08-08T10:31:51;100350.69;;;17.32
76381;BMP280;65202;52.520;10.528;2023-08-08T10:34:20;100337.53;;;16.92
76381;BMP280;65202;52.520;10.528;2023-08-08T10:36:50;100339.88;;;16.80
76381;BMP280;65202;52.520;10.528;2023-08-08T10:39:20;100332.38;;;16.86
76381;BMP280;65202;52.520;10.528;2023-08-08T10:41:49;100326.00;;;17.14
76381;BMP280;65202;52.520;10.528;2023-08-08T10:44:24;100324.06;;;17.71
76381;BMP280;65202;52.520;10.528;2023-08-08T10:46:53;100320.97;;;18.05
76381;BMP280;65202;52.520;10.528;2023-08-08T10:49:23;100320.66;;;17.69
76381;BMP280;65202;52.520;10.528;2023-08-08T10:51:51;100315.72;;;17.79
76381;BMP280;65202;52.520;10.528;2023-08-08T10:54:25;100312.38;;;17.83
76381;BMP280;65202;52.520;10.528;2023-08-08T10:56:58;100295.88;;;18.33
76381;BMP280;65202;52.520;10.528;2023-08-08T10:59:35;100315.09;;;18.07
76381;BMP280;65202;52.520;10.528;2023-08-08T11:02:04;100293.19;;;18.14
76381;BMP280;65202;52.520;10.528;2023-08-08T11:04:32;100293.63;;;18.88
76381;BMP280;65202;52.520;10.528;2023-08-08T11:07:00;100289.41;;;19.00
76381;BMP280;65202;52.520;10.528;2023-08-08T11:09:30;100296.19;;;18.97
76381;BMP280;65202;52.520;10.528;2023-08-08T11:11:57;100294.66;;;19.53
76381;BMP280;65202;52.520;10.528;2023-08-08T11:14:25;100291.28;;;19.67
76381;BMP280;65202;52.520;10.528;2023-08-08T11:16:53;100288.72;;;19.89
76381;BMP280;65202;52.520;10.528;2023-08-08T11:19:21;100287.88;;;19.81
76381;BMP280;65202;52.520;10.528;2023-08-08T11:21:50;100282.78;;;20.33
76381;BMP280;65202;52.520;10.528;2023-08-08T11:24:17;100278.50;;;20.55
76381;BMP280;65202;52.520;10.528;2023-08-08T11:26:44;100278.53;;;20.46
76381;BMP280;65202;52.520;10.528;2023-08-08T11:29:14;100271.63;;;20.70
76381;BMP280;65202;52.520;10.528;2023-08-08T11:31:42;100258.03;;;20.83
76381;BMP280;65202;52.520;10.528;2023-08-08T11:34:15;100258.72;;;21.16
76381;BMP280;65202;52.520;10.528;2023-08-08T11:36:43;100258.75;;;21.10
76381;BMP280;65202;52.520;10.528;2023-08-08T11:39:12;100260.34;;;21.23
76381;BMP280;65202;52.520;10.528;2023-08-08T11:41:41;100260.63;;;20.67
76381;BMP280;65202;52.520;10.528;2023-08-08T11:44:09;100271.63;;;20.72
76381;BMP280;65202;52.520;10.528;2023-08-08T11:46:46;100253.19;;;20.04
76381;BMP280;65202;52.520;10.528;2023-08-08T11:49:15;100259.13;;;20.12
76381;BMP280;65202;52.520;10.528;2023-08-08T11:51:46;100257.41;;;20.08
76381;BMP280;65202;52.520;10.528;2023-08-08T11:54:14;100266.75;;;19.96
76381;BMP280;65202;52.520;10.528;2023-08-08T11:56:43;100259.88;;;20.44
76381;BMP280;65202;52.520;10.528;2023-08-08T11:59:10;100257.91;;;21.05
76381;BMP280;65202;52.520;10.528;2023-08-08T12:01:41;100242.50;;;21.29
76381;BMP280;65202;52.520;10.528;2023-08-08T12:04:09;100246.19;;;20.81
76381;BMP280;65202;52.520;10.528;2023-08-08T12:06:37;100251.28;;;20.78
76381;BMP280;65202;52.520;10.528;2023-08-08T12:09:12;100243.53;;;21.06
76381;BMP280;65202;52.520;10.528;2023-08-08T12:11:40;100227.16;;;21.41
76381;BMP280;65202;52.520;10.528;2023-08-08T12:14:08;100228.94;;;21.24
76381;BMP280;65202;52.520;10.528;2023-08-08T12:16:43;100214.38;;;21.46
76381;BMP280;65202;52.520;10.528;2023-08-08T12:19:11;100205.88;;;21.47
76381;BMP280;65202;52.520;10.528;2023-08-08T12:21:39;100226.53;;;21.11
76381;BMP280;65202;52.520;10.528;2023-08-08T12:24:06;100223.00;;;21.30
76381;BMP280;65202;52.520;10.528;2023-08-08T12:26:34;100222.47;;;20.76
76381;BMP280;65202;52.520;10.528;2023-08-08T12:29:01;100216.19;;;21.30
76381;BMP280;65202;52.520;10.528;2023-08-08T12:31:28;100229.91;;;21.07
76381;BMP280;65202;52.520;10.528;2023-08-08T12:33:56;100236.06;;;20.63
76381;BMP280;65202;52.520;10.528;2023-08-08T12:36:23;100242.84;;;20.64
76381;BMP280;65202;52.520;10.528;2023-08-08T12:38:50;100245.38;;;20.67
76381;BMP280;65202;52.520;10.528;2023-08-08T12:41:18;100246.13;;;20.92
76381;BMP280;65202;52.520;10.528;2023-08-08T12:43:45;100258.00;;;20.90
76381;BMP280;65202;52.520;10.528;2023-08-08T12:46:15;100243.66;;;20.79
76381;BMP280;65202;52.520;10.528;2023-08-08T12:48:43;100229.00;;;21.21
76381;BMP280;65202;52.520;10.528;2023-08-08T12:51:11;100238.34;;;21.18
76381;BMP280;65202;52.520;10.528;2023-08-08T12:53:38;100246.19;;;20.78
76381;BMP280;65202;52.520;10.528;2023-08-08T12:56:05;100242.13;;;20.32
76381;BMP280;65202;52.520;10.528;2023-08-08T12:58:33;100247.13;;;20.47
76381;BMP280;65202;52.520;10.528;2023-08-08T13:01:00;100258.25;;;20.13
76381;BMP280;65202;52.520;10.528;2023-08-08T13:03:28;100276.03;;;19.79
76381;BMP280;65202;52.520;10.528;2023-08-08T13:05:59;100276.88;;;19.45
76381;BMP280;65202;52.520;10.528;2023-08-08T13:08:26;100275.19;;;19.50
76381;BMP280;65202;52.520;10.528;2023-08-08T13:10:54;100266.72;;;19.41
76381;BMP280;65202;52.520;10.528;2023-08-08T13:13:24;100269.25;;;19.79
76381;BMP280;65202;52.520;10.528;2023-08-08T13:15:56;100265.84;;;19.89
76381;BMP280;65202;52.520;10.528;2023-08-08T13:18:23;100258.25;;;20.10
76381;BMP280;65202;52.520;10.528;2023-08-08T13:20:50;100254.88;;;20.05
76381;BMP280;65202;52.520;10.528;2023-08-08T13:23:18;100256.59;;;19.97
76381;BMP280;65202;52.520;10.528;2023-08-08T13:25:45;100269.25;;;19.56
76381;BMP280;65202;52.520;10.528;2023-08-08T13:28:12;100291.22;;;19.33
76381;BMP280;65202;52.520;10.528;2023-08-08T13:30:41;100284.34;;;18.95
76381;BMP280;65202;52.520;10.528;2023-08-08T13:33:10;100271.69;;;19.02
76381;BMP280;65202;52.520;10.528;2023-08-08T13:35:37;100274.28;;;19.09
76381;BMP280;65202;52.520;10.528;2023-08-08T13:38:05;100275.94;;;19.10
76381;BMP280;65202;52.520;10.528;2023-08-08T13:40:33;100267.50;;;19.22
76381;BMP280;65202;52.520;10.528;2023-08-08T13:43:01;100275.03;;;18.98
76381;BMP280;65202;52.520;10.528;2023-08-08T13:45:28;100283.44;;;18.82
76381;BMP280;65202;52.520;10.528;2023-08-08T13:47:56;100337.31;;;18.45
76381;BMP280;65202;52.520;10.528;2023-08-08T13:50:23;100374.84;;;17.10